Fort Shafter, Hawaii
Current Conditions -  °F | °C
As of 9:53 PM on Wednesday 22 Oct 2014 (Local Time) from PHNL Reporting Station
Broken Clouds Broken Clouds  
Wind Chill: 76°   Ceiling: 5500
Heat Index: 76°   Visibility: 10mi
Dew Point: 75°   Wind: 3mph
Humidity: 97%   Direction: 10°N
Pressure: 30.03"   Gusts: NA
Location:  21.35°N, 157.87°W
Report Text: PHNL 230753Z 01003KT 10SM FEW024 SCT036 BKN055 24/24 A3003 RMK AO2 SLP168 VCSH NE-E T02440239 $
Loading
Personal Weather Stations






























Interactive Weather Map
Tropical Storm Tracking
New forecast layout! Learn more

10-Day Weather Forecast

Advertisements
Track Severe Weather on mobile